Time;durP1;ratioP1;P1;durP2;ratioP2;P2;SDS_P1;SDS_P2;PMS_P1;PMS_P2;Temp;Humidity;BMP_temperature;BMP_pressure;BME280_temperature;BME280_humidity;BME280_pressure;Samples;Min_cycle;Max_cycle;Signal;HPM_P1;HPM_P2
2023/03/27 16:42:45;;;;;;;5.13;1.90;;;;;;;;;;5109156;27;1368051;-79
2023/03/27 16:45:11;;;;;;;8.73;2.70;;;;;;;;;;5134516;28;20061;-78
2023/03/27 16:47:36;;;;;;;7.88;2.85;;;;;;;;;;5137107;27;20126;-79
2023/03/27 16:50:03;;;;;;;11.23;2.50;;;;;;;;;;5134547;28;20023;-81
2023/03/27 16:52:28;;;;;;;4.88;2.53;;;;;;;;;;5134898;27;20436;-79
2023/03/27 16:54:54;;;;;;;5.95;2.50;;;;;;;;;;5134506;28;20027;-81
2023/03/27 16:57:19;;;;;;;5.63;2.83;;;;;;;;;;5135556;28;20027;-80
2023/03/27 16:59:45;;;;;;;5.90;2.70;;;;;;;;;;5085216;28;20151;-78
2023/03/27 17:02:11;;;;;;;6.03;3.13;;;;;;;;;;5114611;28;20028;-80
2023/03/27 17:04:37;;;;;;;4.72;2.70;;;;;;;;;;5113641;28;20534;-80
2023/03/27 17:07:03;;;;;;;4.53;2.83;;;;;;;;;;5096161;28;20074;-79
2023/03/27 17:09:31;;;;;;;5.43;2.47;;;;;;;;;;5127156;28;20038;-79
2023/03/27 17:11:56;;;;;;;9.00;3.22;;;;;;;;;;5134627;27;20059;-79
2023/03/27 17:14:22;;;;;;;5.82;3.15;;;;;;;;;;5135438;28;20038;-79
2023/03/27 17:16:47;;;;;;;4.28;2.47;;;;;;;;;;5133467;28;20470;-79
2023/03/27 17:19:13;;;;;;;4.72;2.33;;;;;;;;;;5125501;28;20028;-81
2023/03/27 17:21:39;;;;;;;4.57;2.67;;;;;;;;;;5112182;28;20435;-81
2023/03/27 17:24:05;;;;;;;5.53;2.53;;;;;;;;;;5116072;28;20035;-80
2023/03/27 17:26:33;;;;;;;5.68;2.40;;;;;;;;;;5113274;28;20044;-78
2023/03/27 17:28:58;;;;;;;6.70;2.25;;;;;;;;;;5111218;28;20026;-78
2023/03/27 17:31:24;;;;;;;4.05;2.00;;;;;;;;;;5111581;28;20461;-81
2023/03/27 17:33:50;;;;;;;5.35;2.53;;;;;;;;;;5104466;28;20024;-79
2023/03/27 17:36:17;;;;;;;2.65;1.85;;;;;;;;;;5076610;28;20040;-79
2023/03/27 17:38:42;;;;;;;5.00;2.20;;;;;;;;;;5097851;28;20023;-81
2023/03/27 17:41:10;;;;;;;9.82;2.15;;;;;;;;;;5078712;28;20043;-82
2023/03/27 17:43:36;;;;;;;2.92;1.70;;;;;;;;;;5116957;28;20020;-88
2023/03/27 17:46:01;;;;;;;5.85;1.88;;;;;;;;;;5095743;28;20363;-87
2023/03/27 17:48:27;;;;;;;3.55;1.63;;;;;;;;;;5120261;28;20050;-89
2023/03/27 17:50:52;;;;;;;3.33;1.80;;;;;;;;;;5101406;28;20077;-87
2023/03/27 17:53:18;;;;;;;5.57;1.63;;;;;;;;;;5105207;28;20039;-88
2023/03/27 17:55:44;;;;;;;4.30;1.58;;;;;;;;;;5099140;28;20110;-85
2023/03/27 17:58:11;;;;;;;3.30;1.42;;;;;;;;;;5083302;28;20502;-84
2023/03/27 18:00:38;;;;;;;1.92;1.30;;;;;;;;;;5061083;28;20171;-78
2023/03/27 18:03:05;;;;;;;4.75;1.58;;;;;;;;;;5075905;28;20438;-78
2023/03/27 18:05:36;;;;;;;4.05;1.25;;;;;;;;;;5075155;28;20017;-77
2023/03/27 18:08:01;;;;;;;1.77;1.27;;;;;;;;;;5058146;28;20398;-77
2023/03/27 18:10:27;;;;;;;3.05;1.30;;;;;;;;;;5075470;28;20487;-77
2023/03/27 18:12:52;;;;;;;3.85;1.50;;;;;;;;;;5076409;28;20032;-78
2023/03/27 18:15:18;;;;;;;3.00;1.40;;;;;;;;;;5057606;28;20126;-78
2023/03/27 18:17:43;;;;;;;2.70;1.40;;;;;;;;;;5074904;28;20028;-77
2023/03/27 18:20:09;;;;;;;2.72;1.45;;;;;;;;;;5074238;28;20490;-78
2023/03/27 18:22:35;;;;;;;1.65;1.15;;;;;;;;;;5074763;28;20029;-79
2023/03/27 18:25:02;;;;;;;5.40;1.77;;;;;;;;;;5057642;28;20372;-77
2023/03/27 18:27:27;;;;;;;5.30;1.60;;;;;;;;;;5058511;28;20391;-78
2023/03/27 18:29:52;;;;;;;1.95;1.10;;;;;;;;;;5074343;28;20030;-78
2023/03/27 18:32:19;;;;;;;3.97;1.33;;;;;;;;;;5074632;28;20031;-77
2023/03/27 18:34:45;;;;;;;1.17;1.02;;;;;;;;;;5076075;28;20060;-78
2023/03/27 18:37:10;;;;;;;1.65;0.90;;;;;;;;;;5074968;28;20052;-78
2023/03/27 18:39:36;;;;;;;3.75;1.50;;;;;;;;;;5076704;28;20040;-78
2023/03/27 18:42:02;;;;;;;5.10;1.70;;;;;;;;;;5075422;28;20051;-78
2023/03/27 18:44:27;;;;;;;4.28;1.50;;;;;;;;;;5058199;28;20032;-79
2023/03/27 18:46:53;;;;;;;3.08;1.50;;;;;;;;;;5074405;28;20020;-78
2023/03/27 18:49:19;;;;;;;3.50;1.38;;;;;;;;;;5075959;28;20032;-78
2023/03/27 18:51:45;;;;;;;2.67;2.03;;;;;;;;;;5075088;28;20474;-77
2023/03/27 18:54:12;;;;;;;5.65;1.33;;;;;;;;;;5074406;28;20058;-77
2023/03/27 18:56:38;;;;;;;1.65;0.90;;;;;;;;;;5076238;28;20036;-79
2023/03/27 18:59:03;;;;;;;3.08;1.20;;;;;;;;;;5074369;28;20497;-80
2023/03/27 19:01:33;;;;;;;4.35;1.50;;;;;;;;;;5074146;28;20056;-79
2023/03/27 19:04:05;;;;;;;1.90;1.08;;;;;;;;;;5074265;28;20040;-79
2023/03/27 19:06:31;;;;;;;4.53;1.52;;;;;;;;;;5058595;28;20031;-79
2023/03/27 19:08:57;;;;;;;1.90;1.10;;;;;;;;;;5073602;28;20032;-79
2023/03/27 19:11:22;;;;;;;3.50;1.10;;;;;;;;;;5073916;28;20127;-78
2023/03/27 19:13:47;;;;;;;5.85;1.50;;;;;;;;;;5074379;28;20032;-77
2023/03/27 19:16:13;;;;;;;4.63;1.13;;;;;;;;;;5075192;28;20086;-79
2023/03/27 19:18:38;;;;;;;3.92;1.13;;;;;;;;;;5074489;28;20035;-77
2023/03/27 19:21:04;;;;;;;8.65;1.10;;;;;;;;;;5073441;28;20078;-77
2023/03/27 19:23:30;;;;;;;4.30;1.40;;;;;;;;;;5074686;28;20102;-80
2023/03/27 19:26:05;;;;;;;1.98;0.98;;;;;;;;;;5074840;28;20032;-78
2023/03/27 19:28:30;;;;;;;3.33;1.10;;;;;;;;;;5075468;28;20082;-78
2023/03/27 19:31:03;;;;;;;3.58;1.00;;;;;;;;;;5073299;28;20032;-78
2023/03/27 19:33:28;;;;;;;3.60;1.10;;;;;;;;;;5075318;28;20051;-78
2023/03/27 19:35:54;;;;;;;1.65;1.02;;;;;;;;;;5073001;28;20475;-78
2023/03/27 19:38:20;;;;;;;2.33;1.38;;;;;;;;;;5074826;28;20059;-78
2023/03/27 19:40:46;;;;;;;3.38;1.30;;;;;;;;;;5057214;28;20471;-79
2023/03/27 19:43:12;;;;;;;2.85;1.33;;;;;;;;;;5056365;28;20546;-78
2023/03/27 19:45:37;;;;;;;1.98;1.17;;;;;;;;;;5075271;28;20052;-78
2023/03/27 19:48:03;;;;;;;2.83;1.30;;;;;;;;;;5073965;28;20052;-78
2023/03/27 19:50:28;;;;;;;0.75;0.70;;;;;;;;;;5074626;28;20028;-78
2023/03/27 19:52:56;;;;;;;3.00;1.25;;;;;;;;;;5074320;28;20386;-78
2023/03/27 19:55:24;;;;;;;1.98;1.00;;;;;;;;;;5072860;28;20533;-78
2023/03/27 19:57:51;;;;;;;2.58;1.30;;;;;;;;;;5074483;28;20094;-79
2023/03/27 20:00:18;;;;;;;9.85;1.23;;;;;;;;;;5073282;28;20032;-80
2023/03/27 20:02:44;;;;;;;1.77;0.85;;;;;;;;;;5074359;28;20368;-77
2023/03/27 20:05:09;;;;;;;1.10;0.80;;;;;;;;;;5073509;28;20063;-80
2023/03/27 20:07:35;;;;;;;1.10;0.88;;;;;;;;;;5073257;28;20476;-79
2023/03/27 20:10:00;;;;;;;1.85;0.98;;;;;;;;;;5072583;28;20043;-79
2023/03/27 20:12:26;;;;;;;1.58;0.95;;;;;;;;;;5072808;28;20446;-79
2023/03/27 20:14:51;;;;;;;2.92;1.00;;;;;;;;;;5072684;28;20024;-79
2023/03/27 20:17:18;;;;;;;1.63;1.02;;;;;;;;;;5073682;28;20471;-78
2023/03/27 20:19:47;;;;;;;1.60;0.80;;;;;;;;;;5056191;28;20036;-78
2023/03/27 20:22:19;;;;;;;2.22;1.10;;;;;;;;;;5072826;28;20024;-79
2023/03/27 20:24:48;;;;;;;1.90;0.90;;;;;;;;;;5056765;28;20039;-80
2023/03/27 20:27:14;;;;;;;2.88;1.00;;;;;;;;;;5055490;28;20021;-78
2023/03/27 20:29:39;;;;;;;2.40;1.20;;;;;;;;;;5072930;28;20052;-80
2023/03/27 20:32:05;;;;;;;2.08;1.00;;;;;;;;;;5072306;28;20529;-78
2023/03/27 20:34:31;;;;;;;1.17;0.85;;;;;;;;;;5072977;28;20536;-78
2023/03/27 20:36:57;;;;;;;3.72;1.00;;;;;;;;;;5072389;28;20104;-78
2023/03/27 20:39:25;;;;;;;1.73;0.90;;;;;;;;;;5073862;28;20099;-79
2023/03/27 20:41:51;;;;;;;3.00;1.17;;;;;;;;;;5073276;28;20052;-78
2023/03/27 20:44:18;;;;;;;3.85;1.45;;;;;;;;;;5072397;28;20070;-79
2023/03/27 20:46:49;;;;;;;2.33;1.30;;;;;;;;;;5072774;28;20037;-78
2023/03/27 20:49:21;;;;;;;4.82;1.60;;;;;;;;;;5055926;28;20032;-78
2023/03/27 20:51:51;;;;;;;2.95;1.42;;;;;;;;;;5073422;28;20489;-75
2023/03/27 20:54:18;;;;;;;3.95;1.67;;;;;;;;;;5072720;28;20025;-75
2023/03/27 20:56:44;;;;;;;2.22;1.60;;;;;;;;;;5073309;28;20111;-76
2023/03/27 20:59:12;;;;;;;3.22;1.40;;;;;;;;;;5071958;28;20102;-76
2023/03/27 21:01:43;;;;;;;3.88;1.67;;;;;;;;;;5072018;28;20035;-75
2023/03/27 21:04:10;;;;;;;3.03;1.60;;;;;;;;;;5055672;28;20020;-75
2023/03/27 21:06:35;;;;;;;3.40;1.33;;;;;;;;;;5073780;28;20051;-76
2023/03/27 21:09:01;;;;;;;6.35;1.27;;;;;;;;;;5055227;28;20483;-75
2023/03/27 21:11:26;;;;;;;4.45;1.85;;;;;;;;;;5072904;28;20029;-75
2023/03/27 21:13:51;;;;;;;3.72;1.67;;;;;;;;;;5055294;28;20074;-75
2023/03/27 21:16:17;;;;;;;2.72;1.50;;;;;;;;;;5071705;28;20037;-75
2023/03/27 21:18:42;;;;;;;3.10;1.65;;;;;;;;;;5073057;28;20028;-75
2023/03/27 21:21:07;;;;;;;4.47;1.65;;;;;;;;;;5072668;28;20058;-75
2023/03/27 21:23:38;;;;;;;6.20;1.23;;;;;;;;;;5071598;28;20395;-75
2023/03/27 21:26:04;;;;;;;4.18;1.27;;;;;;;;;;5072828;28;20480;-75
2023/03/27 21:28:29;;;;;;;3.53;1.35;;;;;;;;;;5075110;28;20032;-75
2023/03/27 21:30:55;;;;;;;2.78;1.45;;;;;;;;;;5058835;28;20025;-75
2023/03/27 21:33:21;;;;;;;2.35;1.30;;;;;;;;;;5074964;28;20025;-75
2023/03/27 21:35:47;;;;;;;2.35;1.60;;;;;;;;;;5075171;28;20439;-75
2023/03/27 21:38:14;;;;;;;2.95;1.27;;;;;;;;;;5074956;28;20032;-75
2023/03/27 21:40:40;;;;;;;2.75;1.20;;;;;;;;;;5074733;28;20033;-75
2023/03/27 21:43:07;;;;;;;1.90;1.15;;;;;;;;;;5074797;28;20040;-75
2023/03/27 21:45:32;;;;;;;2.67;1.30;;;;;;;;;;5058339;28;20468;-75
2023/03/27 21:47:58;;;;;;;3.53;1.88;;;;;;;;;;5058031;28;20028;-75
2023/03/27 21:50:23;;;;;;;1.90;1.10;;;;;;;;;;5058267;28;20513;-75
2023/03/27 21:52:48;;;;;;;5.78;1.73;;;;;;;;;;5058007;28;20031;-75
2023/03/27 21:55:14;;;;;;;2.97;1.40;;;;;;;;;;5057748;28;20024;-75
2023/03/27 21:57:40;;;;;;;2.17;1.33;;;;;;;;;;5076063;28;20536;-75
2023/03/27 22:00:07;;;;;;;2.90;1.40;;;;;;;;;;5074762;28;20055;-74
2023/03/27 22:02:32;;;;;;;2.55;1.58;;;;;;;;;;5057844;28;20025;-75
2023/03/27 22:04:57;;;;;;;4.75;1.45;;;;;;;;;;5074442;28;20038;-75
2023/03/27 22:07:23;;;;;;;2.25;1.10;;;;;;;;;;5074620;28;20025;-75
2023/03/27 22:09:48;;;;;;;3.17;1.00;;;;;;;;;;5074641;28;20081;-75
2023/03/27 22:12:15;;;;;;;10.05;1.40;;;;;;;;;;5075962;28;20036;-76
2023/03/27 22:14:40;;;;;;;1.92;1.33;;;;;;;;;;5075471;28;20048;-75
2023/03/27 22:17:06;;;;;;;1.85;1.17;;;;;;;;;;5074166;28;20071;-75
2023/03/27 22:19:31;;;;;;;2.47;1.50;;;;;;;;;;5075972;28;20043;-76
2023/03/27 22:21:57;;;;;;;2.83;1.40;;;;;;;;;;5075668;28;20032;-76
2023/03/27 22:24:24;;;;;;;2.38;1.00;;;;;;;;;;5075621;28;20044;-76
2023/03/27 22:26:50;;;;;;;2.78;1.02;;;;;;;;;;5075464;28;20154;-76
2023/03/27 22:29:16;;;;;;;2.97;1.70;;;;;;;;;;5074074;28;20063;-76
2023/03/27 22:31:42;;;;;;;3.33;1.27;;;;;;;;;;5075362;28;20102;-75
2023/03/27 22:34:07;;;;;;;2.22;1.10;;;;;;;;;;5041144;28;20459;-75
2023/03/27 22:36:33;;;;;;;2.53;1.42;;;;;;;;;;5074161;28;20035;-76
2023/03/27 22:38:58;;;;;;;2.17;1.40;;;;;;;;;;5074132;28;20025;-75
2023/03/27 22:41:24;;;;;;;2.22;1.30;;;;;;;;;;5073487;28;20436;-76
2023/03/27 22:43:50;;;;;;;1.45;1.08;;;;;;;;;;5056987;28;20467;-76
2023/03/27 22:46:21;;;;;;;2.80;1.50;;;;;;;;;;5056982;28;20029;-76
2023/03/27 22:48:46;;;;;;;2.92;1.38;;;;;;;;;;5073767;28;20027;-75
2023/03/27 22:51:12;;;;;;;2.30;1.20;;;;;;;;;;5074958;28;20025;-75
2023/03/27 22:53:38;;;;;;;2.42;1.30;;;;;;;;;;5073569;28;20028;-76
2023/03/27 22:56:04;;;;;;;2.42;1.30;;;;;;;;;;5056795;28;20185;-75
2023/03/27 22:58:30;;;;;;;1.70;1.10;;;;;;;;;;5073809;28;20036;-76
2023/03/27 23:00:56;;;;;;;4.95;1.50;;;;;;;;;;5074622;28;20399;-76
2023/03/27 23:03:22;;;;;;;2.15;1.17;;;;;;;;;;5073862;28;20029;-75
2023/03/27 23:05:49;;;;;;;2.00;1.13;;;;;;;;;;5056595;28;20028;-75
2023/03/27 23:08:16;;;;;;;1.55;1.20;;;;;;;;;;5073269;28;20405;-76
2023/03/27 23:10:42;;;;;;;2.65;1.30;;;;;;;;;;5073240;28;20132;-76
2023/03/27 23:13:08;;;;;;;1.63;1.10;;;;;;;;;;5074653;28;20055;-76
2023/03/27 23:15:34;;;;;;;1.83;1.40;;;;;;;;;;5074323;28;20028;-76
2023/03/27 23:17:59;;;;;;;2.35;1.02;;;;;;;;;;5073597;28;20071;-76
2023/03/27 23:20:26;;;;;;;2.10;1.30;;;;;;;;;;5072951;28;20036;-75
2023/03/27 23:22:52;;;;;;;2.53;1.20;;;;;;;;;;5074820;28;20476;-76
2023/03/27 23:25:17;;;;;;;3.20;1.75;;;;;;;;;;5077724;28;20039;-76
2023/03/27 23:27:42;;;;;;;1.33;1.10;;;;;;;;;;5073289;28;20082;-77
2023/03/27 23:30:08;;;;;;;1.70;1.17;;;;;;;;;;5074285;28;20382;-77
2023/03/27 23:32:36;;;;;;;2.28;1.23;;;;;;;;;;5056038;28;20044;-76
2023/03/27 23:35:07;;;;;;;1.58;1.15;;;;;;;;;;5056603;28;20536;-77
2023/03/27 23:37:33;;;;;;;3.15;1.40;;;;;;;;;;5056616;28;20032;-76
2023/03/27 23:39:59;;;;;;;2.70;1.20;;;;;;;;;;5072842;28;20467;-77
2023/03/27 23:42:24;;;;;;;3.95;1.50;;;;;;;;;;5055626;28;20068;-75
2023/03/27 23:44:50;;;;;;;3.58;1.33;;;;;;;;;;5039918;28;20036;-76
2023/03/27 23:47:15;;;;;;;1.65;1.20;;;;;;;;;;5072486;28;20070;-76
2023/03/27 23:49:41;;;;;;;1.60;1.10;;;;;;;;;;5072467;28;20024;-77
2023/03/27 23:52:07;;;;;;;2.00;1.08;;;;;;;;;;5072479;28;20074;-76
2023/03/27 23:54:32;;;;;;;2.33;1.10;;;;;;;;;;5073611;28;20111;-76
2023/03/27 23:56:58;;;;;;;2.67;1.05;;;;;;;;;;5072218;28;20040;-76
2023/03/27 23:59:23;;;;;;;5.63;1.15;;;;;;;;;;5055704;28;20127;-76
